Time;durP1;ratioP1;P1;durP2;ratioP2;P2;SDS_P1;SDS_P2;PMS_P1;PMS_P2;Temp;Humidity;BMP_temperature;BMP_pressure;BME280_temperature;BME280_humidity;BME280_pressure;Samples;Min_cycle;Max_cycle;Signal;HPM_P1;HPM_P2
2022/07/17 00:00:42;;;;;;;6.07;2.00;;;16.10;99.90;;;;;;5008619;28;20064;-73
2022/07/17 00:03:12;;;;;;;9.70;2.30;;;16.10;99.90;;;;;;4990354;28;20022;-73
2022/07/17 00:05:38;;;;;;;8.25;2.20;;;16.10;99.90;;;;;;4994011;28;20130;-74
2022/07/17 00:08:08;;;;;;;9.50;2.22;;;16.10;99.90;;;;;;4989104;28;20015;-74
2022/07/17 00:10:35;;;;;;;6.55;1.90;;;16.00;99.90;;;;;;4990169;28;20026;-74
2022/07/17 00:13:01;;;;;;;4.35;2.15;;;16.00;99.90;;;;;;5003352;28;20019;-74
2022/07/17 00:15:27;;;;;;;8.88;2.33;;;16.00;99.90;;;;;;4990864;28;20541;-74
2022/07/17 00:17:52;;;;;;;9.35;2.45;;;16.00;99.90;;;;;;5004376;28;20038;-74
2022/07/17 00:20:18;;;;;;;6.75;2.10;;;16.00;99.90;;;;;;4990876;28;20045;-74
2022/07/17 00:22:43;;;;;;;6.63;2.13;;;16.00;99.90;;;;;;4990823;28;20038;-74
2022/07/17 00:25:10;;;;;;;7.90;2.17;;;16.00;99.90;;;;;;4966264;28;1062261;-74
2022/07/17 00:27:37;;;;;;;10.13;2.40;;;16.00;99.90;;;;;;5003448;28;20053;-74
2022/07/17 00:30:04;;;;;;;8.55;2.58;;;16.00;99.90;;;;;;5008647;28;20076;-73
2022/07/17 00:32:29;;;;;;;6.80;2.28;;;16.00;99.90;;;;;;4998216;28;20545;-74
2022/07/17 00:34:56;;;;;;;7.25;2.40;;;15.90;99.90;;;;;;4997870;28;20030;-74
2022/07/17 00:37:21;;;;;;;10.32;2.80;;;15.90;99.90;;;;;;5008774;28;20280;-74
2022/07/17 00:39:47;;;;;;;6.57;2.15;;;15.90;99.90;;;;;;4998106;28;20441;-74
2022/07/17 00:42:14;;;;;;;7.47;2.25;;;15.90;99.90;;;;;;4997461;28;20541;-74
2022/07/17 00:44:41;;;;;;;7.43;2.33;;;15.90;99.90;;;;;;4996207;28;20363;-75
2022/07/17 00:47:24;;;;;;;7.15;2.17;;;15.90;99.90;;;;;;5009006;28;20022;-74
2022/07/17 00:49:50;;;;;;;4.70;2.30;;;15.90;99.90;;;;;;4990528;28;20026;-75
2022/07/17 00:52:17;;;;;;;6.63;2.25;;;15.80;99.90;;;;;;5005939;28;20506;-75
2022/07/17 00:54:44;;;;;;;8.45;2.58;;;15.80;99.90;;;;;;5002156;28;20390;-75
2022/07/17 00:57:13;;;;;;;5.20;2.20;;;15.80;99.90;;;;;;4990218;28;20034;-74
2022/07/17 00:59:39;;;;;;;7.10;2.30;;;15.80;99.90;;;;;;4997104;28;20049;-74
2022/07/17 01:02:06;;;;;;;8.20;2.53;;;15.80;99.90;;;;;;5009844;28;20502;-74
2022/07/17 01:04:36;;;;;;;8.73;2.75;;;15.80;99.90;;;;;;5001526;28;20367;-74
2022/07/17 01:07:04;;;;;;;7.88;2.70;;;15.80;99.90;;;;;;5002025;28;20072;-75
2022/07/17 01:09:30;;;;;;;7.07;2.80;;;15.80;99.90;;;;;;5009810;28;20446;-74
2022/07/17 01:11:56;;;;;;;7.53;2.70;;;15.80;99.90;;;;;;5010190;28;20113;-73
2022/07/17 01:14:24;;;;;;;5.15;2.28;;;15.80;99.90;;;;;;4996118;28;20440;-74
2022/07/17 01:16:50;;;;;;;6.25;2.58;;;15.70;99.90;;;;;;5008307;28;20037;-74
2022/07/17 01:19:16;;;;;;;7.47;2.65;;;15.70;99.90;;;;;;5010000;28;20030;-74
2022/07/17 01:21:44;;;;;;;7.85;2.60;;;15.70;99.90;;;;;;5013911;28;20489;-74
2022/07/17 01:24:10;;;;;;;5.80;2.40;;;15.70;99.90;;;;;;5011855;28;20498;-74
2022/07/17 01:26:36;;;;;;;8.65;2.60;;;15.70;99.90;;;;;;4999157;28;20058;-74
2022/07/17 01:29:02;;;;;;;7.72;2.33;;;15.70;99.90;;;;;;5013718;28;20022;-75
2022/07/17 01:31:28;;;;;;;8.70;3.03;;;15.70;99.90;;;;;;5000511;28;20034;-73
2022/07/17 01:33:54;;;;;;;9.20;2.28;;;15.60;99.90;;;;;;5000250;28;20073;-75
2022/07/17 01:36:23;;;;;;;11.07;2.60;;;15.60;99.90;;;;;;4996213;28;20032;-73
2022/07/17 01:38:49;;;;;;;7.85;2.95;;;15.60;99.90;;;;;;5010716;28;20068;-74
2022/07/17 01:41:15;;;;;;;8.38;2.80;;;15.60;99.90;;;;;;4992830;28;20104;-74
2022/07/17 01:43:41;;;;;;;9.13;2.80;;;15.60;99.90;;;;;;4994037;28;20019;-74
2022/07/17 01:46:06;;;;;;;5.32;2.28;;;15.50;99.90;;;;;;4997848;28;20029;-74
2022/07/17 01:48:32;;;;;;;9.30;2.70;;;15.50;99.90;;;;;;4993387;28;20079;-73
2022/07/17 01:50:58;;;;;;;9.85;2.92;;;15.50;99.90;;;;;;4991855;28;20081;-74
2022/07/17 01:53:23;;;;;;;9.48;2.85;;;15.50;99.90;;;;;;4993176;28;20022;-74
2022/07/17 01:55:49;;;;;;;6.60;2.70;;;15.40;99.90;;;;;;5012667;28;20018;-74
2022/07/17 01:58:15;;;;;;;9.32;2.80;;;15.40;99.90;;;;;;5012943;28;20399;-75
2022/07/17 02:00:41;;;;;;;9.90;2.70;;;15.40;99.90;;;;;;4995487;28;20485;-74
2022/07/17 02:03:06;;;;;;;5.20;2.58;;;15.40;99.90;;;;;;5003607;28;20034;-74
2022/07/17 02:05:32;;;;;;;8.80;3.42;;;15.40;99.90;;;;;;5001349;28;20026;-75
2022/07/17 02:07:58;;;;;;;6.13;2.95;;;15.30;99.90;;;;;;5006801;28;20072;-74
2022/07/17 02:10:23;;;;;;;7.43;3.40;;;15.30;99.90;;;;;;5002233;28;20060;-74
2022/07/17 02:12:49;;;;;;;10.00;3.40;;;15.20;99.90;;;;;;4997251;28;20027;-74
2022/07/17 02:15:15;;;;;;;7.30;3.28;;;15.30;99.90;;;;;;4992966;28;20081;-75
2022/07/17 02:17:41;;;;;;;5.95;3.00;;;15.20;99.90;;;;;;5010546;28;20040;-74
2022/07/17 02:20:08;;;;;;;8.93;3.50;;;15.20;99.90;;;;;;5011050;28;20079;-74
2022/07/17 02:22:35;;;;;;;7.82;3.05;;;15.10;99.90;;;;;;5012077;28;20528;-75
2022/07/17 02:25:00;;;;;;;10.32;3.65;;;15.10;99.90;;;;;;5005675;28;20294;-74
2022/07/17 02:27:26;;;;;;;10.02;3.55;;;15.10;99.90;;;;;;4992755;28;20145;-74
2022/07/17 02:29:51;;;;;;;9.48;3.72;;;15.10;99.90;;;;;;5005693;28;20034;-74
2022/07/17 02:32:17;;;;;;;9.73;3.63;;;15.10;99.90;;;;;;5004382;28;20026;-75
2022/07/17 02:34:43;;;;;;;7.95;3.65;;;15.00;99.90;;;;;;4998269;28;20052;-74
2022/07/17 02:37:08;;;;;;;9.18;3.10;;;15.00;99.90;;;;;;5011869;28;20026;-74
2022/07/17 02:39:34;;;;;;;8.25;3.20;;;15.00;99.90;;;;;;4997183;28;20498;-74
2022/07/17 02:41:59;;;;;;;10.25;3.50;;;15.00;99.90;;;;;;5008171;28;20080;-74
2022/07/17 02:44:25;;;;;;;7.53;3.30;;;15.00;99.90;;;;;;5012027;28;20014;-73
2022/07/17 02:46:50;;;;;;;8.77;3.80;;;14.90;99.90;;;;;;4995258;28;20031;-75
2022/07/17 02:49:16;;;;;;;9.95;3.33;;;14.90;99.90;;;;;;5001729;28;20017;-74
2022/07/17 02:51:41;;;;;;;11.27;4.30;;;14.90;99.90;;;;;;4991657;28;20037;-74
2022/07/17 02:54:07;;;;;;;6.43;3.40;;;14.90;99.90;;;;;;5000102;28;20176;-73
2022/07/17 02:56:33;;;;;;;5.30;3.50;;;14.90;99.90;;;;;;4997793;28;20026;-74
2022/07/17 02:58:58;;;;;;;13.48;3.92;;;14.80;99.90;;;;;;4997430;28;20493;-73
2022/07/17 03:01:24;;;;;;;9.45;3.65;;;14.80;99.90;;;;;;4996528;28;20027;-74
2022/07/17 03:03:49;;;;;;;11.55;3.70;;;14.80;99.90;;;;;;4995163;28;20402;-74
2022/07/17 03:06:15;;;;;;;10.43;3.90;;;14.80;99.90;;;;;;5011334;28;20050;-74
2022/07/17 03:08:41;;;;;;;7.97;3.38;;;14.80;99.90;;;;;;5011303;28;20034;-73
2022/07/17 03:11:06;;;;;;;11.85;4.18;;;14.70;99.90;;;;;;5011475;28;20191;-73
2022/07/17 03:13:32;;;;;;;11.20;3.35;;;14.70;99.90;;;;;;5011270;28;20026;-74
2022/07/17 03:15:57;;;;;;;8.35;3.22;;;14.70;99.90;;;;;;5003852;28;20030;-73
2022/07/17 03:18:23;;;;;;;6.78;3.35;;;14.70;99.90;;;;;;5010418;28;20045;-73
2022/07/17 03:20:48;;;;;;;6.90;3.53;;;14.70;99.90;;;;;;5008007;28;20466;-73
2022/07/17 03:23:14;;;;;;;9.02;3.50;;;14.60;99.90;;;;;;5009711;28;20022;-73
2022/07/17 03:25:40;;;;;;;9.18;3.45;;;14.60;99.90;;;;;;5006141;28;20060;-74
2022/07/17 03:28:05;;;;;;;10.73;3.30;;;14.60;99.90;;;;;;5006195;28;20470;-74
2022/07/17 03:30:31;;;;;;;8.43;3.70;;;14.60;99.90;;;;;;4999066;28;20034;-74
2022/07/17 03:32:57;;;;;;;6.60;3.70;;;14.60;99.90;;;;;;4991689;28;20022;-73
2022/07/17 03:35:22;;;;;;;8.20;3.60;;;14.60;99.90;;;;;;5011393;28;20057;-74
2022/07/17 03:37:48;;;;;;;7.15;3.25;;;14.60;99.90;;;;;;4996574;28;20438;-76
2022/07/17 03:40:14;;;;;;;10.23;3.65;;;14.50;99.90;;;;;;4993451;28;20034;-74
2022/07/17 03:42:39;;;;;;;9.02;4.15;;;14.50;99.90;;;;;;5011039;28;20374;-74
2022/07/17 03:45:06;;;;;;;9.55;3.75;;;14.50;99.90;;;;;;5005355;28;20033;-74
2022/07/17 03:47:32;;;;;;;8.38;3.60;;;14.50;99.90;;;;;;5003672;28;20449;-75
2022/07/17 03:49:57;;;;;;;8.85;3.80;;;14.40;99.90;;;;;;5006623;28;20030;-73
2022/07/17 03:52:23;;;;;;;11.57;4.18;;;14.50;99.90;;;;;;5011482;28;20044;-74
2022/07/17 03:54:48;;;;;;;8.05;4.30;;;14.50;99.90;;;;;;5000131;28;20351;-76
2022/07/17 03:57:14;;;;;;;9.90;4.00;;;14.50;99.90;;;;;;5006317;28;20029;-74
2022/07/17 03:59:40;;;;;;;7.93;3.75;;;14.40;99.90;;;;;;4993345;28;20038;-74
2022/07/17 04:02:05;;;;;;;9.40;4.20;;;14.40;99.90;;;;;;4992276;28;20468;-75
2022/07/17 04:04:31;;;;;;;10.75;4.65;;;14.50;99.90;;;;;;4991450;28;20381;-76
2022/07/17 04:06:56;;;;;;;12.73;4.55;;;14.40;99.90;;;;;;4991506;28;20050;-76
2022/07/17 04:09:22;;;;;;;10.80;3.90;;;14.40;99.90;;;;;;5010597;28;20022;-76
2022/07/17 04:11:47;;;;;;;10.32;4.07;;;14.40;99.90;;;;;;5010870;28;20026;-75
2022/07/17 04:14:13;;;;;;;11.73;4.47;;;14.50;99.90;;;;;;5008040;28;20018;-74
2022/07/17 04:16:38;;;;;;;6.18;3.75;;;14.50;99.90;;;;;;5001991;28;20145;-72
2022/07/17 04:19:04;;;;;;;9.18;3.92;;;14.40;99.90;;;;;;4993452;28;20061;-71
2022/07/17 04:21:30;;;;;;;10.50;4.25;;;14.50;99.90;;;;;;5003465;28;20089;-75
2022/07/17 04:23:55;;;;;;;10.65;4.07;;;14.40;99.90;;;;;;4991006;28;20030;-75
2022/07/17 04:26:21;;;;;;;9.13;4.53;;;14.40;99.90;;;;;;5007867;28;20061;-74
2022/07/17 04:28:46;;;;;;;8.40;4.13;;;14.50;99.90;;;;;;5004433;28;20411;-74
2022/07/17 04:31:12;;;;;;;8.13;4.47;;;14.50;99.90;;;;;;5003854;28;20022;-74
2022/07/17 04:33:38;;;;;;;9.25;3.90;;;14.50;99.90;;;;;;4999151;28;20378;-74
2022/07/17 04:36:04;;;;;;;14.10;4.20;;;14.50;99.90;;;;;;5009224;28;20101;-74
2022/07/17 04:38:30;;;;;;;8.85;4.07;;;14.50;99.90;;;;;;5010168;28;20498;-75
2022/07/17 04:40:56;;;;;;;7.93;3.65;;;14.50;99.90;;;;;;5010636;28;20049;-74
2022/07/17 04:43:22;;;;;;;7.90;4.15;;;14.50;99.90;;;;;;5006955;28;20026;-74
2022/07/17 04:45:48;;;;;;;8.43;3.83;;;14.60;99.90;;;;;;5002396;28;20466;-75
2022/07/17 04:48:13;;;;;;;7.90;3.75;;;14.60;99.90;;;;;;5008741;28;20022;-75
2022/07/17 04:50:39;;;;;;;9.02;3.53;;;14.60;99.90;;;;;;4997948;28;20100;-75
2022/07/17 04:53:04;;;;;;;9.00;3.35;;;14.70;99.90;;;;;;5010512;28;20037;-74
2022/07/17 04:55:30;;;;;;;10.40;3.67;;;14.70;99.90;;;;;;5013959;28;20521;-74
2022/07/17 04:57:55;;;;;;;8.38;3.40;;;14.80;99.90;;;;;;5012660;28;20018;-74
2022/07/17 05:00:21;;;;;;;9.65;3.50;;;14.80;99.90;;;;;;5011061;28;20018;-74
2022/07/17 05:02:47;;;;;;;9.57;3.38;;;14.90;99.90;;;;;;5014173;28;20022;-74
2022/07/17 05:05:13;;;;;;;7.90;3.65;;;14.90;99.90;;;;;;5013767;28;20030;-74
2022/07/17 05:07:39;;;;;;;9.45;3.03;;;14.90;99.90;;;;;;5013913;28;20037;-74
2022/07/17 05:10:06;;;;;;;8.50;3.08;;;14.90;99.90;;;;;;5013739;28;20084;-74
2022/07/17 05:12:31;;;;;;;7.85;2.67;;;15.00;99.90;;;;;;5013103;28;20065;-76
2022/07/17 05:14:58;;;;;;;9.55;3.20;;;15.00;99.90;;;;;;5004014;28;20046;-74
2022/07/17 05:17:24;;;;;;;5.45;2.83;;;15.00;99.90;;;;;;5014083;28;20018;-74
2022/07/17 05:19:49;;;;;;;9.20;3.00;;;15.10;99.90;;;;;;5003990;28;20212;-74
2022/07/17 05:22:15;;;;;;;5.88;2.70;;;15.10;99.90;;;;;;5007936;28;20509;-74
2022/07/17 05:24:40;;;;;;;9.88;2.80;;;15.10;99.90;;;;;;4994126;28;20030;-74
2022/07/17 05:27:06;;;;;;;7.53;2.53;;;15.20;99.90;;;;;;4993812;28;20074;-73
2022/07/17 05:29:32;;;;;;;6.05;2.33;;;15.20;99.90;;;;;;4994795;28;20026;-74
2022/07/17 05:31:57;;;;;;;4.72;2.30;;;15.20;99.90;;;;;;5005003;28;20097;-75
2022/07/17 05:34:23;;;;;;;6.88;2.28;;;15.30;99.90;;;;;;5013098;28;20028;-74
2022/07/17 05:36:49;;;;;;;5.22;2.05;;;15.30;99.90;;;;;;5013242;28;20029;-74
2022/07/17 05:39:14;;;;;;;6.93;2.25;;;15.30;99.90;;;;;;5013040;28;20026;-73
2022/07/17 05:41:40;;;;;;;8.20;2.63;;;15.40;99.90;;;;;;5013277;28;20034;-74
2022/07/17 05:44:05;;;;;;;7.53;2.03;;;15.40;99.90;;;;;;5010243;28;20057;-74
2022/07/17 05:46:31;;;;;;;6.85;1.77;;;15.40;99.90;;;;;;5013044;28;20417;-74
2022/07/17 05:48:57;;;;;;;10.32;2.20;;;15.40;99.90;;;;;;5005840;28;20027;-74
2022/07/17 05:51:22;;;;;;;8.18;2.05;;;15.50;99.90;;;;;;5006511;28;20022;-74
2022/07/17 05:53:48;;;;;;;8.85;1.95;;;15.50;99.90;;;;;;5013062;28;20609;-75
2022/07/17 05:56:13;;;;;;;8.13;2.20;;;15.50;99.90;;;;;;5012980;28;20037;-74
2022/07/17 05:58:39;;;;;;;6.60;1.85;;;15.60;99.90;;;;;;4999967;28;20028;-74
2022/07/17 06:01:04;;;;;;;6.82;1.73;;;15.60;99.90;;;;;;5012763;28;20026;-73
2022/07/17 06:03:30;;;;;;;5.63;1.63;;;15.60;99.90;;;;;;5011612;28;20022;-74
2022/07/17 06:05:56;;;;;;;3.92;1.50;;;15.60;99.90;;;;;;5012671;28;20097;-74
2022/07/17 06:08:21;;;;;;;6.07;1.52;;;15.60;99.90;;;;;;5012777;28;20110;-74
2022/07/17 06:10:47;;;;;;;6.55;1.58;;;15.70;99.90;;;;;;5012503;28;20031;-74
2022/07/17 06:13:13;;;;;;;7.72;1.63;;;15.70;99.90;;;;;;5011091;28;20104;-77
2022/07/17 06:15:38;;;;;;;5.70;1.38;;;15.70;99.90;;;;;;5012286;28;20025;-74
2022/07/17 06:18:10;;;;;;;4.93;1.70;;;15.80;99.90;;;;;;5012934;28;20037;-74
2022/07/17 06:20:35;;;;;;;7.55;1.70;;;15.80;99.90;;;;;;5012510;28;20490;-75
2022/07/17 06:23:01;;;;;;;10.02;1.90;;;15.80;99.90;;;;;;5012659;28;20108;-74
2022/07/17 06:25:27;;;;;;;5.38;1.70;;;15.80;99.90;;;;;;5010670;28;20124;-74
2022/07/17 06:27:52;;;;;;;6.03;1.60;;;15.90;99.90;;;;;;5004715;28;20037;-75
2022/07/17 06:30:18;;;;;;;5.90;1.48;;;15.90;99.90;;;;;;5012483;28;20480;-74
2022/07/17 06:32:44;;;;;;;4.63;1.38;;;16.00;99.90;;;;;;5012172;28;20063;-74
2022/07/17 06:35:10;;;;;;;4.93;1.27;;;16.00;99.90;;;;;;5012333;28;20026;-74
2022/07/17 06:37:36;;;;;;;4.68;1.30;;;16.00;99.90;;;;;;5012180;28;20490;-75
2022/07/17 06:40:04;;;;;;;5.47;1.38;;;16.10;99.90;;;;;;5012176;28;20125;-74
2022/07/17 06:42:29;;;;;;;5.40;1.27;;;16.20;99.90;;;;;;4999873;28;20491;-74
2022/07/17 06:44:55;;;;;;;8.07;1.48;;;16.20;99.90;;;;;;5012560;28;20109;-74
2022/07/17 06:47:21;;;;;;;7.78;1.60;;;16.30;99.90;;;;;;5012215;28;20030;-74
2022/07/17 06:49:46;;;;;;;6.13;1.73;;;16.40;99.90;;;;;;4997980;28;20036;-74
2022/07/17 06:52:12;;;;;;;6.50;1.35;;;16.50;99.90;;;;;;5011928;28;20025;-74
2022/07/17 06:54:37;;;;;;;7.32;1.67;;;16.60;99.90;;;;;;5011722;28;20030;-75
2022/07/17 06:57:03;;;;;;;12.80;1.98;;;16.70;99.90;;;;;;5010100;28;20076;-75
2022/07/17 06:59:29;;;;;;;5.75;1.25;;;16.80;99.90;;;;;;5011824;28;20372;-74
2022/07/17 07:01:54;;;;;;;8.60;1.55;;;16.90;99.90;;;;;;5011638;28;20068;-74
2022/07/17 07:04:20;;;;;;;7.72;1.50;;;17.00;99.90;;;;;;5011794;28;20453;-74
2022/07/17 07:06:45;;;;;;;5.25;1.63;;;17.10;99.90;;;;;;5011547;28;20026;-76
2022/07/17 07:09:11;;;;;;;5.78;1.58;;;17.30;99.90;;;;;;4998127;28;20040;-74
2022/07/17 07:11:38;;;;;;;9.18;1.60;;;17.40;99.90;;;;;;5002289;28;20029;-74
2022/07/17 07:14:03;;;;;;;6.68;1.42;;;17.60;99.90;;;;;;5010085;28;20029;-75
2022/07/17 07:16:29;;;;;;;8.88;1.55;;;17.70;99.90;;;;;;5011102;28;20018;-74
2022/07/17 07:18:54;;;;;;;7.85;1.52;;;17.80;99.90;;;;;;5011720;28;20092;-74
2022/07/17 07:21:20;;;;;;;9.77;1.15;;;18.00;99.90;;;;;;5003742;28;20098;-74
2022/07/17 07:23:46;;;;;;;5.65;1.30;;;18.10;99.90;;;;;;5005825;28;20018;-74
2022/07/17 07:26:11;;;;;;;3.47;1.33;;;18.30;99.90;;;;;;5010875;28;20069;-74
2022/07/17 07:28:37;;;;;;;5.25;1.30;;;18.50;99.90;;;;;;5011434;28;20512;-74
2022/07/17 07:31:03;;;;;;;7.47;1.25;;;18.70;99.90;;;;;;5011444;28;20537;-74
2022/07/17 07:33:29;;;;;;;4.60;1.20;;;18.90;99.90;;;;;;5011510;28;20038;-74
2022/07/17 07:35:54;;;;;;;6.03;1.23;;;19.10;99.90;;;;;;4996347;28;20027;-73
2022/07/17 07:38:20;;;;;;;7.05;1.38;;;19.20;99.90;;;;;;5011039;28;20061;-74
2022/07/17 07:40:46;;;;;;;5.97;1.42;;;19.30;99.90;;;;;;5004413;28;20094;-75
2022/07/17 07:43:11;;;;;;;6.65;1.17;;;19.50;99.90;;;;;;5011179;28;20037;-71
2022/07/17 07:45:37;;;;;;;5.53;1.02;;;19.60;99.90;;;;;;5011227;28;20707;-74
2022/07/17 07:48:02;;;;;;;5.68;1.40;;;19.80;99.90;;;;;;5010968;28;20115;-74
2022/07/17 07:50:28;;;;;;;8.02;1.45;;;20.00;99.90;;;;;;5011175;28;20057;-74
2022/07/17 07:52:54;;;;;;;5.15;1.20;;;20.20;99.90;;;;;;5010997;28;20018;-74
2022/07/17 07:55:21;;;;;;;9.68;1.20;;;20.40;99.90;;;;;;5009942;28;20021;-74
2022/07/17 07:57:47;;;;;;;4.50;1.50;;;20.50;99.90;;;;;;5011094;28;20073;-75
2022/07/17 08:00:13;;;;;;;5.88;1.80;;;20.60;99.90;;;;;;5011026;28;20022;-74
2022/07/17 08:02:39;;;;;;;7.07;1.27;;;20.80;99.90;;;;;;5010878;28;20029;-72
2022/07/17 08:05:04;;;;;;;6.35;1.30;;;21.00;99.10;;;;;;5010679;28;20077;-73
2022/07/17 08:07:31;;;;;;;5.10;1.50;;;21.10;98.30;;;;;;5010511;28;20061;-72
2022/07/17 08:09:57;;;;;;;5.50;1.45;;;21.20;97.30;;;;;;5006343;28;20522;-72
2022/07/17 08:12:23;;;;;;;3.92;1.10;;;21.30;95.80;;;;;;5009284;28;20022;-72
2022/07/17 08:14:49;;;;;;;5.05;1.30;;;21.40;94.90;;;;;;5010721;28;20026;-72
2022/07/17 08:17:15;;;;;;;4.57;1.23;;;21.40;94.20;;;;;;5010532;28;20053;-72
2022/07/17 08:19:41;;;;;;;6.90;1.58;;;21.50;93.60;;;;;;5009369;28;20567;-72
2022/07/17 08:22:06;;;;;;;3.83;1.20;;;21.60;92.70;;;;;;5010368;28;20061;-72
2022/07/17 08:24:32;;;;;;;5.97;1.30;;;21.70;92.70;;;;;;5008982;28;20019;-71
2022/07/17 08:26:57;;;;;;;6.22;1.30;;;21.70;92.20;;;;;;5009182;28;20057;-72
2022/07/17 08:29:23;;;;;;;4.40;1.42;;;21.90;91.90;;;;;;5012224;28;20022;-73
2022/07/17 08:31:49;;;;;;;7.28;1.35;;;22.10;91.50;;;;;;5014615;28;20066;-72
2022/07/17 08:34:15;;;;;;;4.43;1.25;;;22.20;91.10;;;;;;5014374;28;20022;-72
2022/07/17 08:36:41;;;;;;;3.30;1.20;;;22.30;90.70;;;;;;5014513;28;20022;-72
2022/07/17 08:39:08;;;;;;;5.72;1.40;;;22.50;90.00;;;;;;5013501;28;20029;-72
2022/07/17 08:41:38;;;;;;;4.32;1.38;;;22.60;87.30;;;;;;5014262;28;20032;-71
2022/07/17 08:44:05;;;;;;;3.30;1.40;;;22.60;85.30;;;;;;5014378;28;20498;-76
2022/07/17 08:46:36;;;;;;;5.10;1.20;;;22.60;85.30;;;;;;5014389;28;20032;-72
2022/07/17 08:49:04;;;;;;;4.50;1.20;;;22.70;84.60;;;;;;5006384;28;20062;-72
2022/07/17 08:51:30;;;;;;;3.80;1.40;;;22.80;84.50;;;;;;5008854;28;20022;-72
2022/07/17 08:53:56;;;;;;;5.38;1.30;;;23.00;84.00;;;;;;5012322;28;20014;-72
2022/07/17 08:56:22;;;;;;;4.30;1.40;;;23.10;82.90;;;;;;5014119;28;20096;-72
2022/07/17 08:58:48;;;;;;;4.72;1.40;;;23.30;82.00;;;;;;5009737;28;20039;-73
2022/07/17 09:01:14;;;;;;;4.75;1.30;;;23.50;80.40;;;;;;5004636;28;20022;-72
2022/07/17 09:03:43;;;;;;;4.45;1.38;;;23.70;79.70;;;;;;5011287;28;20026;-72
2022/07/17 09:06:21;;;;;;;5.63;1.50;;;23.80;77.90;;;;;;4994284;28;20050;-73
2022/07/17 09:08:47;;;;;;;3.78;1.38;;;23.80;76.30;;;;;;4996923;28;20030;-72
2022/07/17 09:11:12;;;;;;;2.85;1.35;;;23.90;75.50;;;;;;5013876;28;20073;-73
2022/07/17 09:13:45;;;;;;;3.83;1.25;;;24.00;74.90;;;;;;5013497;28;20029;-74
2022/07/17 09:16:12;;;;;;;3.17;1.23;;;24.10;74.50;;;;;;5013917;28;20022;-73
2022/07/17 09:18:55;;;;;;;3.67;1.30;;;24.20;72.50;;;;;;5013840;28;20042;-72
2022/07/17 09:21:23;;;;;;;3.40;1.58;;;24.40;70.70;;;;;;5014139;28;20069;-73
2022/07/17 09:24:02;;;;;;;5.55;1.25;;;24.60;70.50;;;;;;5008049;28;20105;-73
2022/07/17 09:26:28;;;;;;;2.92;1.45;;;24.80;68.70;;;;;;5013559;28;20081;-73
2022/07/17 09:28:54;;;;;;;3.50;1.25;;;24.80;68.50;;;;;;5013585;28;20438;-73
2022/07/17 09:31:31;;;;;;;5.50;1.50;;;24.90;68.60;;;;;;5013868;28;20056;-74
2022/07/17 09:33:58;;;;;;;2.72;1.38;;;25.00;67.80;;;;;;5013411;28;20029;-73
2022/07/17 09:36:24;;;;;;;4.40;1.77;;;25.10;66.90;;;;;;4999776;28;20018;-74
2022/07/17 09:38:53;;;;;;;3.05;1.55;;;25.20;66.30;;;;;;5005931;28;20039;-73
2022/07/17 09:41:21;;;;;;;2.08;1.30;;;25.20;65.80;;;;;;5011236;28;20026;-73
2022/07/17 09:43:52;;;;;;;2.17;1.35;;;25.30;65.00;;;;;;5013172;28;20359;-73
2022/07/17 09:46:23;;;;;;;2.90;1.65;;;25.50;64.30;;;;;;5013324;28;20030;-72
2022/07/17 09:48:51;;;;;;;4.50;1.65;;;25.60;63.70;;;;;;5006524;28;20019;-73
2022/07/17 09:51:25;;;;;;;4.50;1.30;;;25.60;62.70;;;;;;5005829;28;20243;-73
2022/07/17 09:53:53;;;;;;;4.93;1.42;;;25.80;61.90;;;;;;5011290;28;20034;-73
2022/07/17 09:56:21;;;;;;;2.97;1.30;;;25.80;62.00;;;;;;5012828;28;20025;-73
2022/07/17 09:58:59;;;;;;;2.15;1.30;;;25.80;62.00;;;;;;5012607;28;20037;-72
2022/07/17 10:01:25;;;;;;;4.57;1.33;;;25.90;61.30;;;;;;5013149;28;20022;-73
2022/07/17 10:03:53;;;;;;;5.22;1.30;;;25.90;60.60;;;;;;5012504;28;20048;-73
2022/07/17 10:06:23;;;;;;;2.53;1.00;;;25.90;59.20;;;;;;5012669;28;20113;-74
2022/07/17 10:08:48;;;;;;;3.90;1.27;;;26.00;59.50;;;;;;5010791;28;20024;-74
2022/07/17 10:11:16;;;;;;;3.30;1.13;;;26.10;59.30;;;;;;5012614;28;20034;-73
2022/07/17 10:13:44;;;;;;;3.33;1.30;;;26.00;58.50;;;;;;5012308;28;20026;-73
2022/07/17 10:16:11;;;;;;;4.20;1.48;;;26.10;58.80;;;;;;5012395;28;20026;-73
2022/07/17 10:18:42;;;;;;;5.20;1.40;;;26.20;58.60;;;;;;5012394;28;20065;-73
2022/07/17 10:21:14;;;;;;;3.42;1.30;;;26.30;58.10;;;;;;5012261;28;20108;-73
2022/07/17 10:23:41;;;;;;;2.53;1.30;;;26.30;57.80;;;;;;5000312;28;20024;-72
2022/07/17 10:26:06;;;;;;;2.92;1.20;;;26.40;57.50;;;;;;5011551;28;20058;-73
2022/07/17 10:28:58;;;;;;;2.65;1.60;;;26.50;56.90;;;;;;5012440;28;20084;-74
2022/07/17 10:31:26;;;;;;;4.28;1.20;;;26.60;57.00;;;;;;5011804;28;20030;-72
2022/07/17 10:34:03;;;;;;;5.00;1.10;;;26.70;56.70;;;;;;5012109;28;20109;-74
2022/07/17 10:36:43;;;;;;;3.67;1.55;;;26.80;56.60;;;;;;5012294;28;20132;-73
2022/07/17 10:39:20;;;;;;;7.32;1.60;;;26.90;55.60;;;;;;5008431;28;20068;-74
2022/07/17 10:41:59;;;;;;;2.58;1.50;;;27.00;55.40;;;;;;5000411;28;20113;-73
2022/07/17 10:44:26;;;;;;;3.67;1.40;;;27.00;54.90;;;;;;4996286;28;20053;-74
2022/07/17 10:46:53;;;;;;;3.70;1.58;;;27.10;55.00;;;;;;4992395;28;20015;-73
2022/07/17 10:49:19;;;;;;;4.20;1.60;;;27.20;54.40;;;;;;4996345;28;20105;-73
2022/07/17 10:51:48;;;;;;;5.47;1.77;;;27.20;54.40;;;;;;5007130;28;20145;-72
2022/07/17 10:54:14;;;;;;;2.78;1.50;;;27.30;54.00;;;;;;4996325;28;20030;-73
2022/07/17 10:56:40;;;;;;;3.42;1.55;;;27.40;53.60;;;;;;5005714;28;20018;-73
2022/07/17 10:59:06;;;;;;;3.00;1.60;;;27.40;53.90;;;;;;4998895;28;20029;-73
2022/07/17 11:01:32;;;;;;;3.13;1.60;;;27.50;53.80;;;;;;5010249;28;20081;-74
2022/07/17 11:04:00;;;;;;;2.88;1.67;;;27.50;53.40;;;;;;4997986;28;20466;-72
2022/07/17 11:06:30;;;;;;;4.43;1.75;;;27.60;53.40;;;;;;5010894;28;20026;-72
2022/07/17 11:09:04;;;;;;;4.88;2.00;;;27.70;53.30;;;;;;5011556;28;20045;-72
2022/07/17 11:11:48;;;;;;;3.50;2.30;;;27.80;52.70;;;;;;5011783;28;20056;-75
2022/07/17 11:14:25;;;;;;;6.35;2.20;;;28.00;52.20;;;;;;5011385;28;20072;-74
2022/07/17 11:16:53;;;;;;;5.38;2.15;;;28.10;51.80;;;;;;5011321;28;20061;-73
2022/07/17 11:19:30;;;;;;;3.30;1.90;;;28.00;51.50;;;;;;5011194;28;20018;-74
2022/07/17 11:21:57;;;;;;;6.03;2.10;;;28.00;51.30;;;;;;5009967;28;20022;-73
2022/07/17 11:24:25;;;;;;;5.05;2.03;;;27.80;51.10;;;;;;5009906;28;20363;-72
2022/07/17 11:26:51;;;;;;;3.40;2.05;;;27.70;51.10;;;;;;5010975;28;20041;-71
2022/07/17 11:29:17;;;;;;;4.10;1.70;;;27.70;51.30;;;;;;5011225;28;20026;-73
2022/07/17 11:31:44;;;;;;;4.45;2.00;;;27.70;51.50;;;;;;5011056;28;20034;-71
2022/07/17 11:34:11;;;;;;;4.47;2.13;;;27.80;51.80;;;;;;5010993;28;20068;-71
2022/07/17 11:36:43;;;;;;;4.03;2.08;;;28.00;51.50;;;;;;5009743;28;20505;-72
2022/07/17 11:39:13;;;;;;;3.78;1.80;;;28.20;51.60;;;;;;5010902;28;20045;-72
2022/07/17 11:41:52;;;;;;;5.63;2.30;;;28.40;51.60;;;;;;5010830;28;20026;-73
2022/07/17 11:44:24;;;;;;;4.57;2.10;;;28.60;51.00;;;;;;5010812;28;20042;-72
2022/07/17 11:46:51;;;;;;;5.57;3.00;;;28.70;50.50;;;;;;5010647;28;20413;-72
2022/07/17 11:49:34;;;;;;;4.80;2.80;;;28.80;49.90;;;;;;5000671;28;20025;-72
2022/07/17 11:52:17;;;;;;;4.25;2.80;;;28.90;50.00;;;;;;5002251;28;20029;-72
2022/07/17 11:54:51;;;;;;;4.53;2.67;;;29.00;49.20;;;;;;5011323;28;20060;-73
2022/07/17 11:57:17;;;;;;;6.40;2.70;;;29.00;48.80;;;;;;5013135;28;20014;-72
2022/07/17 11:59:44;;;;;;;4.47;2.40;;;28.90;49.00;;;;;;5016200;28;20062;-72
2022/07/17 12:02:18;;;;;;;9.68;5.00;;;28.90;49.00;;;;;;5016051;28;20101;-73
2022/07/17 12:04:59;;;;;;;7.03;3.50;;;28.90;48.90;;;;;;5016466;28;20026;-73
2022/07/17 12:07:47;;;;;;;7.68;3.50;;;28.80;48.70;;;;;;5014921;28;20482;-72
2022/07/17 12:10:21;;;;;;;5.85;2.63;;;28.90;48.90;;;;;;5016508;28;20506;-72
2022/07/17 12:13:04;;;;;;;5.03;3.00;;;28.90;48.90;;;;;;5015718;28;20033;-72
2022/07/17 12:15:40;;;;;;;5.65;3.10;;;28.90;48.50;;;;;;5013954;28;20037;-72
2022/07/17 12:18:09;;;;;;;5.43;2.42;;;28.60;48.00;;;;;;5004455;28;20029;-72
2022/07/17 12:20:47;;;;;;;3.67;2.35;;;28.50;48.80;;;;;;5013433;28;20026;-72
2022/07/17 12:23:36;;;;;;;5.18;2.85;;;28.60;49.60;;;;;;5014784;28;20022;-72
2022/07/17 12:26:14;;;;;;;5.57;3.05;;;28.80;49.40;;;;;;5014669;28;20073;-71
2022/07/17 12:28:40;;;;;;;5.25;2.60;;;28.90;49.00;;;;;;5014948;28;20022;-72
2022/07/17 12:31:13;;;;;;;4.60;2.65;;;29.20;49.10;;;;;;5010700;28;20377;-72
2022/07/17 12:33:39;;;;;;;6.03;3.10;;;29.30;48.50;;;;;;5004516;28;20026;-71
2022/07/17 12:36:05;;;;;;;6.93;2.80;;;29.30;47.90;;;;;;5002660;28;20372;-71
2022/07/17 12:38:31;;;;;;;4.85;2.60;;;29.40;48.40;;;;;;5003886;28;20062;-71
2022/07/17 12:40:57;;;;;;;6.50;2.80;;;29.50;48.40;;;;;;5014358;28;20037;-73
2022/07/17 12:43:24;;;;;;;7.18;3.38;;;29.60;48.00;;;;;;5014352;28;20099;-71
2022/07/17 12:45:56;;;;;;;5.88;2.92;;;29.60;47.60;;;;;;5010990;28;20022;-72